Terminal Aerodrome Forecast
Issued by NWS

Home | Current Version | Previous Version | Graphics & Text | Print | Product List | Glossary On
Versions: 1 2 3 4 5 6 7 8 9 10 11 12 13 14 15 16 17 18 19 20 21
246
FTUS43 KMPX 221137
TAFAXN
TAF
KAXN 221137Z 2212/2312 33004KT 1SM BR OVC004
     FM221500 31006KT 1 1/2SM BR OVC005
     FM221800 29007KT 4SM BR OVC006
     FM230200 29004KT 1 1/2SM BR OVC003=

USA.gov is the U.S. government's official web portal to all federal, state and local government web resources and services.